CheckWX is a tool to help pilots better visualize weather data.  It is not intended as a substitute for an official pre-flight weather briefing.

11:00:54 UTC

5C1 METAR
Boerne Stage Field Airport
San Antonio, Texas, USA
Current

26 mins ago

K5C1 141035Z AUTO 00000KT 10SM OVC048 19/13 A3000 RMK AO1
Observed
Oct-14 @ 10:35 UTC
Visibility
10 SM
Flight Rules
VFR
Cloud Levels
  • Overcast at 4,800' AGL
Temperature
19°C / 66°F
Dewpoint
13°C / 55°F
Humidity
68%
Altimeter
30" Hg
Pressure
1015.92 hPa
Previous

46 mins ago

K5C1 141015Z AUTO 00000KT 10SM SCT020 OVC048 19/13 A3000 RMK AO1
Observed
Oct-14 @ 10:15 UTC
Visibility
10 SM
Flight Rules
VFR
Cloud Levels
  • Scattered at 2,000' AGL
  • Overcast at 4,800' AGL
Temperature
19°C / 66°F
Dewpoint
13°C / 55°F
Humidity
68%
Altimeter
30" Hg
Pressure
1015.92 hPa
Previous

1 hour ago

K5C1 140955Z AUTO 00000KT 10SM OVC022 20/13 A3001 RMK AO1
Observed
Oct-14 @ 09:55 UTC
Visibility
10 SM
Flight Rules
MVFR
Cloud Levels
  • Overcast at 2,200' AGL
Temperature
20°C / 68°F
Dewpoint
13°C / 55°F
Humidity
64%
Altimeter
30.01" Hg
Pressure
1016.22 hPa